CheckWX is a tool to help pilots better visualize weather data.  It is not intended as a substitute for an official pre-flight weather briefing.

01:55:30 UTC

CYCG TAF
Castlegar / West Kootenay Regional Airport
Castlegar, Canada
TAF CYCG 190038Z 1901/1904 36009KT P6SM FEW230 RMK NXT FCST WILL BE ISSUED AT 191445Z

Mar-19@
01:00 UTC

Mar-19 @ 01:00 UTC

Mar-19@
04:00 UTC

Mar-19 @ 04:00 UTC

TAF CYCG 190038Z 1901/1904 36009KT P6SM FEW230 RMK NXT FCST WILL BE ISSUED AT 191445Z
Wind
  • 360° at 9 KTS
Cloud Levels
  • Few at 23,000' AGL